aviador You're here:

KJRB Decoded Metar

in
Report Time2017-06-29 12:15:00
UTC Time2017-06-29 12:23:50
Flight Rules vfr VFR
Wind220° at 05 kt
W.Rank220° ranks 9
Current wind is below 220° avg. (5.5)
Visibility9999 m
Phenomena:N/A
Clouds:N/A
Expected CloudBase > 2,400 ft AGL from Temp-Dew spread
CeilingNone
Temp21°C
Dew Point15°C (69% RH)
AAT20.8°C
QNH1022 hPa
Raw Report
KJRB 291215Z 22005KT 10SM CLR 21/15 A3017 RMK AO2 SLP302 PWINO
FZRANO RVRNO=

Extra information for KJRB:More info

Social comments